createdAt,value
2022-11-23T00:01:20.121Z,7.20
2022-11-23T00:03:48.902Z,7.67
2022-11-23T00:06:16.138Z,7.83
2022-11-23T00:08:42.727Z,7.23
2022-11-23T00:11:09.323Z,4.77
2022-11-23T00:13:36.326Z,4.03
2022-11-23T00:16:07.366Z,5.63
2022-11-23T00:18:34.084Z,5.40
2022-11-23T00:21:00.628Z,6.00
2022-11-23T00:23:27.108Z,6.90
2022-11-23T00:25:53.547Z,7.40
2022-11-23T00:28:20.015Z,8.70
2022-11-23T00:30:50.484Z,7.53
2022-11-23T00:33:18.042Z,9.10
2022-11-23T00:35:45.047Z,6.80
2022-11-23T00:38:12.070Z,7.80
2022-11-23T00:40:38.625Z,6.50
2022-11-23T00:43:05.783Z,4.33
2022-11-23T00:45:32.615Z,9.80
2022-11-23T00:47:59.086Z,11.70
2022-11-23T00:50:25.529Z,6.93
2022-11-23T00:52:51.999Z,6.87
2022-11-23T00:55:18.464Z,7.70
2022-11-23T00:57:44.936Z,5.67
2022-11-23T01:00:12.555Z,6.23
2022-11-23T01:02:40.103Z,11.97
2022-11-23T01:05:06.887Z,6.40
2022-11-23T01:07:33.552Z,10.13
2022-11-23T01:10:00.116Z,7.73
2022-11-23T01:12:28.700Z,8.87
2022-11-23T01:14:55.167Z,7.67
2022-11-23T01:17:22.079Z,13.90
2022-11-23T01:19:48.567Z,10.77
2022-11-23T01:22:15.074Z,6.97
2022-11-23T01:24:42.326Z,8.50
2022-11-23T01:27:08.964Z,10.07
2022-11-23T01:29:35.470Z,7.23
2022-11-23T01:32:02.228Z,7.47
2022-11-23T01:34:28.858Z,9.33
2022-11-23T01:36:58.488Z,14.30
2022-11-23T01:39:27.577Z,13.00
2022-11-23T01:41:54.039Z,7.90
2022-11-23T01:44:22.945Z,10.60
2022-11-23T01:46:54.466Z,6.93
2022-11-23T01:49:22.204Z,7.90
2022-11-23T01:51:52.083Z,8.03
2022-11-23T01:54:26.992Z,6.37
2022-11-23T01:56:59.611Z,6.80
2022-11-23T01:59:28.086Z,6.70
2022-11-23T02:01:54.686Z,7.30
2022-11-23T02:04:29.681Z,7.07
2022-11-23T02:06:57.340Z,5.63
2022-11-23T02:09:26.452Z,5.00
2022-11-23T02:11:53.069Z,7.13
2022-11-23T02:14:23.386Z,6.63
2022-11-23T02:16:53.738Z,8.77
2022-11-23T02:19:51.740Z,7.63
2022-11-23T02:22:51.598Z,9.73
2022-11-23T02:25:38.099Z,8.67
2022-11-23T02:28:05.190Z,6.40
2022-11-23T02:30:33.354Z,8.60
2022-11-23T02:32:59.818Z,7.80
2022-11-23T02:35:26.324Z,7.63
2022-11-23T02:37:53.605Z,7.03
2022-11-23T02:40:33.340Z,8.50
2022-11-23T02:43:00.715Z,7.33
2022-11-23T02:45:41.007Z,7.00
2022-11-23T02:48:07.533Z,8.93
2022-11-23T02:50:34.082Z,6.90
2022-11-23T02:53:00.632Z,7.63
2022-11-23T02:55:27.084Z,7.60
2022-11-23T02:57:53.608Z,11.03
2022-11-23T03:00:20.189Z,10.33
2022-11-23T03:02:47.602Z,10.40
2022-11-23T03:05:14.242Z,6.80
2022-11-23T03:07:40.956Z,7.97
2022-11-23T03:10:10.609Z,11.43
2022-11-23T03:12:37.475Z,11.83
2022-11-23T03:15:05.175Z,9.93
2022-11-23T03:17:33.104Z,10.00
2022-11-23T03:20:00.062Z,9.73
2022-11-23T03:22:27.139Z,11.83
2022-11-23T03:24:53.763Z,6.50
2022-11-23T03:27:20.475Z,8.23
2022-11-23T03:29:47.101Z,9.00
2022-11-23T03:32:18.514Z,7.30
2022-11-23T03:34:48.459Z,5.97
2022-11-23T03:37:16.356Z,11.97
2022-11-23T03:39:47.316Z,8.60
2022-11-23T03:42:32.734Z,7.30
2022-11-23T03:44:59.358Z,9.03
2022-11-23T03:47:25.974Z,8.87
2022-11-23T03:49:52.443Z,7.77
2022-11-23T03:52:18.940Z,7.50
2022-11-23T03:54:47.439Z,13.47
2022-11-23T03:57:14.400Z,9.00
2022-11-23T03:59:40.915Z,8.40
2022-11-23T04:02:08.776Z,9.03
2022-11-23T04:04:43.039Z,8.90
2022-11-23T04:07:29.518Z,8.73
2022-11-23T04:09:56.132Z,14.43
2022-11-23T04:12:42.635Z,7.83
2022-11-23T04:15:09.979Z,8.47
2022-11-23T04:17:37.109Z,9.23
2022-11-23T04:20:05.059Z,6.40
2022-11-23T04:22:32.075Z,10.07
2022-11-23T04:24:58.645Z,7.30
2022-11-23T04:27:27.339Z,9.93
2022-11-23T04:29:53.791Z,11.10
2022-11-23T04:32:20.365Z,11.27
2022-11-23T04:34:47.812Z,5.80
2022-11-23T04:37:14.491Z,9.80
2022-11-23T04:39:43.668Z,5.90
2022-11-23T04:42:23.486Z,8.57
2022-11-23T04:44:57.772Z,8.87
2022-11-23T04:47:24.877Z,7.87
2022-11-23T04:49:51.972Z,9.13
2022-11-23T04:52:19.829Z,7.37
2022-11-23T04:54:49.625Z,7.87
2022-11-23T04:57:16.340Z,11.20
2022-11-23T04:59:44.650Z,6.40
2022-11-23T05:02:11.233Z,8.27
2022-11-23T05:04:54.800Z,10.27
2022-11-23T05:07:26.391Z,8.17
2022-11-23T05:09:57.497Z,8.27
2022-11-23T05:12:25.407Z,9.10
2022-11-23T05:14:52.108Z,9.67
2022-11-23T05:17:23.900Z,8.97
2022-11-23T05:19:53.106Z,6.83
2022-11-23T05:22:20.794Z,8.13
2022-11-23T05:24:47.992Z,8.93
2022-11-23T05:27:18.609Z,11.60
2022-11-23T05:29:45.801Z,8.37
2022-11-23T05:32:12.371Z,9.50
2022-11-23T05:34:38.911Z,5.70
2022-11-23T05:37:07.039Z,9.30
2022-11-23T05:39:36.325Z,9.77
2022-11-23T05:42:03.017Z,10.80
2022-11-23T05:44:33.936Z,8.07
2022-11-23T05:47:00.715Z,8.97
2022-11-23T05:49:31.386Z,7.13
2022-11-23T05:51:58.245Z,7.67
2022-11-23T05:54:27.210Z,9.07
2022-11-23T05:57:05.133Z,8.87
2022-11-23T05:59:37.994Z,11.63
2022-11-23T06:02:05.248Z,6.53
2022-11-23T06:04:35.172Z,8.37
2022-11-23T06:07:02.012Z,11.23
2022-11-23T06:09:37.918Z,8.80
2022-11-23T06:12:08.103Z,13.30
2022-11-23T06:14:35.161Z,6.87
2022-11-23T06:17:01.744Z,10.37
2022-11-23T06:19:39.117Z,10.13
2022-11-23T06:22:06.048Z,10.77
2022-11-23T06:24:37.770Z,10.70
2022-11-23T06:27:33.313Z,6.77
2022-11-23T06:30:03.396Z,11.20
2022-11-23T06:32:31.669Z,8.90
2022-11-23T06:35:00.972Z,8.30
2022-11-23T06:37:30.676Z,5.97
2022-11-23T06:39:57.379Z,7.67
2022-11-23T06:45:28.713Z,11.03
2022-11-23T06:47:59.918Z,8.90
2022-11-23T06:50:27.169Z,9.37
2022-11-23T06:52:56.278Z,5.90
2022-11-23T06:55:30.445Z,7.47
2022-11-23T06:57:58.761Z,8.73
2022-11-23T07:00:25.419Z,9.57
2022-11-23T07:02:55.821Z,6.53
2022-11-23T07:05:59.377Z,9.63
2022-11-23T07:08:43.121Z,6.20
2022-11-23T07:11:22.600Z,9.07
2022-11-23T07:13:49.127Z,5.60
2022-11-23T07:16:15.572Z,12.00
2022-11-23T07:18:42.345Z,9.17
2022-11-23T07:21:08.838Z,8.67
2022-11-23T07:23:40.540Z,7.43
2022-11-23T07:26:09.084Z,9.83
2022-11-23T07:28:35.534Z,7.37
2022-11-23T07:31:02.052Z,7.97
2022-11-23T07:33:28.958Z,5.70
2022-11-23T07:35:55.492Z,6.23
2022-11-23T07:38:22.449Z,7.77
2022-11-23T07:40:50.817Z,5.93
2022-11-23T07:43:37.512Z,6.77
2022-11-23T07:46:03.913Z,8.10
2022-11-23T07:48:36.000Z,7.07
2022-11-23T07:51:02.924Z,8.30
2022-11-23T07:53:29.395Z,7.00
2022-11-23T07:55:57.818Z,3.33
2022-11-23T07:58:24.592Z,8.03
2022-11-23T08:00:51.069Z,9.70
2022-11-23T08:03:27.675Z,8.50
2022-11-23T08:05:55.329Z,7.10
2022-11-23T08:08:22.004Z,6.70
2022-11-23T08:10:52.962Z,5.63
2022-11-23T08:13:21.968Z,8.33
2022-11-23T08:15:53.639Z,6.67
2022-11-23T08:18:20.752Z,7.30
2022-11-23T08:20:47.277Z,7.97
2022-11-23T08:23:13.742Z,10.33
2022-11-23T08:25:40.267Z,9.67
2022-11-23T08:28:06.756Z,7.80
2022-11-23T08:30:34.125Z,9.57
2022-11-23T08:33:04.933Z,9.17
2022-11-23T08:35:34.405Z,10.43
2022-11-23T08:38:01.366Z,7.63
2022-11-23T08:40:27.886Z,8.57
2022-11-23T08:42:54.757Z,7.67
2022-11-23T08:45:21.318Z,8.50
2022-11-23T08:47:47.779Z,8.03
2022-11-23T08:50:14.817Z,10.00
2022-11-23T08:52:41.194Z,8.77
2022-11-23T08:55:07.985Z,10.50
2022-11-23T08:57:34.534Z,6.53
2022-11-23T09:00:01.234Z,9.43
2022-11-23T09:02:27.623Z,8.50
2022-11-23T09:04:54.101Z,7.17
2022-11-23T09:07:20.611Z,8.70
2022-11-23T09:09:47.066Z,12.83
2022-11-23T09:12:13.551Z,6.43
2022-11-23T09:14:39.957Z,8.90
2022-11-23T09:17:06.553Z,8.63
2022-11-23T09:19:32.997Z,3.80
2022-11-23T09:21:59.466Z,6.23
2022-11-23T09:24:27.844Z,6.03
2022-11-23T09:26:54.995Z,7.53
2022-11-23T09:29:21.484Z,4.50
2022-11-23T09:31:47.867Z,7.83
2022-11-23T09:34:14.292Z,4.00
2022-11-23T09:36:40.783Z,4.47
2022-11-23T09:39:07.188Z,7.47
2022-11-23T09:41:58.299Z,8.47
2022-11-23T09:44:35.680Z,3.67
2022-11-23T09:47:27.405Z,4.53
2022-11-23T09:50:11.238Z,5.80
2022-11-23T09:52:45.278Z,5.33
2022-11-23T09:55:29.902Z,5.47
2022-11-23T09:58:02.620Z,5.17
2022-11-23T10:00:43.496Z,5.20
2022-11-23T10:03:19.075Z,6.20
2022-11-23T10:06:14.375Z,4.50
2022-11-23T10:08:40.903Z,5.73
2022-11-23T10:11:35.047Z,5.37
2022-11-23T10:14:38.849Z,6.50
2022-11-23T10:17:32.107Z,3.60
2022-11-23T10:20:36.867Z,3.90
2022-11-23T10:23:11.651Z,5.10
2022-11-23T10:25:50.160Z,3.30
2022-11-23T10:28:20.128Z,3.50
2022-11-23T10:31:18.410Z,5.20
2022-11-23T10:33:54.887Z,5.73
2022-11-23T10:36:21.396Z,5.27
2022-11-23T10:38:52.397Z,3.60
2022-11-23T10:41:18.853Z,3.57
2022-11-23T10:43:52.409Z,5.07
2022-11-23T10:46:23.164Z,5.03
2022-11-23T10:48:51.552Z,2.90
2022-11-23T10:51:31.701Z,4.60
2022-11-23T10:54:21.181Z,2.77
2022-11-23T10:56:49.364Z,2.87
2022-11-23T10:59:29.413Z,4.00
2022-11-23T11:02:16.435Z,4.50
2022-11-23T11:04:44.240Z,3.90
2022-11-23T11:07:17.518Z,3.07
2022-11-23T11:09:49.847Z,3.70
2022-11-23T11:12:19.884Z,4.60
2022-11-23T11:15:12.385Z,3.63
2022-11-23T11:17:40.909Z,3.97
2022-11-23T11:20:33.579Z,4.87
2022-11-23T11:23:16.174Z,3.57
2022-11-23T11:25:42.673Z,4.17
2022-11-23T11:28:32.112Z,3.63
2022-11-23T11:31:35.931Z,4.30
2022-11-23T11:34:16.188Z,3.13
2022-11-23T11:36:52.613Z,5.23
2022-11-23T11:39:29.846Z,2.73
2022-11-23T11:42:00.293Z,6.70
2022-11-23T11:44:27.237Z,2.40
2022-11-23T11:47:02.118Z,4.90
2022-11-23T11:49:41.567Z,2.20
2022-11-23T11:52:22.132Z,5.90
2022-11-23T11:55:01.420Z,2.33
2022-11-23T11:57:37.001Z,4.07
2022-11-23T12:00:13.209Z,6.53
2022-11-23T12:03:05.792Z,3.63
2022-11-23T12:05:46.557Z,3.93
2022-11-23T12:08:20.126Z,5.20
2022-11-23T12:10:55.342Z,5.90
2022-11-23T12:13:24.601Z,3.83
2022-11-23T12:16:20.869Z,5.03
2022-11-23T12:19:10.064Z,5.80
2022-11-23T12:22:02.412Z,4.83
2022-11-23T12:24:56.330Z,2.47
2022-11-23T12:27:48.472Z,3.23
2022-11-23T12:30:42.569Z,3.20
2022-11-23T12:33:36.830Z,4.37
2022-11-23T12:36:40.939Z,4.03
2022-11-23T12:39:32.406Z,2.83
2022-11-23T12:42:10.813Z,3.27
2022-11-23T12:45:00.901Z,4.47
2022-11-23T12:47:41.550Z,2.63
2022-11-23T12:50:29.349Z,3.43
2022-11-23T12:53:29.886Z,4.83
2022-11-23T12:56:21.793Z,3.10
2022-11-23T12:58:50.531Z,3.40
2022-11-23T13:01:35.119Z,3.03
2022-11-23T13:04:14.123Z,3.73
2022-11-23T13:06:59.619Z,4.57
2022-11-23T13:09:54.516Z,5.73
2022-11-23T13:12:44.618Z,3.93
2022-11-23T13:15:55.055Z,7.07
2022-11-23T13:18:50.413Z,3.93
2022-11-23T13:21:29.330Z,5.20
2022-11-23T13:23:55.751Z,5.70
2022-11-23T13:26:28.256Z,3.30
2022-11-23T13:29:00.235Z,4.93
2022-11-23T13:31:33.550Z,6.00
2022-11-23T13:34:24.180Z,2.27
2022-11-23T13:37:16.846Z,4.03
2022-11-23T13:39:58.656Z,1.77
2022-11-23T13:42:27.030Z,2.50
2022-11-23T13:45:21.431Z,4.53
2022-11-23T13:48:04.693Z,4.50
2022-11-23T13:50:32.633Z,3.27
2022-11-23T13:53:00.195Z,4.53
2022-11-23T13:55:38.273Z,3.50
2022-11-23T13:58:23.187Z,4.20
2022-11-23T14:00:54.714Z,4.23
2022-11-23T14:03:47.679Z,3.03
2022-11-23T14:06:19.102Z,2.93
2022-11-23T14:08:48.218Z,2.37
2022-11-23T14:11:20.213Z,3.27
2022-11-23T14:13:55.424Z,2.83
2022-11-23T14:16:54.766Z,3.00
2022-11-23T14:19:27.295Z,3.03
2022-11-23T14:22:00.188Z,3.07
2022-11-23T14:24:55.508Z,2.20
2022-11-23T14:27:46.158Z,2.60
2022-11-23T14:30:40.211Z,3.30
2022-11-23T14:33:32.870Z,2.30
2022-11-23T14:36:12.765Z,3.73
2022-11-23T14:39:13.440Z,1.93
2022-11-23T14:41:42.293Z,2.50
2022-11-23T14:44:14.272Z,2.13
2022-11-23T14:47:02.989Z,3.80
2022-11-23T14:49:29.962Z,3.43
2022-11-23T14:51:57.014Z,3.53
2022-11-23T14:54:25.254Z,1.80
2022-11-23T14:56:54.229Z,1.20
2022-11-23T14:59:24.713Z,3.30
2022-11-23T15:01:55.931Z,2.23
2022-11-23T15:04:35.186Z,4.73
2022-11-23T15:07:13.331Z,4.53
2022-11-23T15:09:50.516Z,2.33
2022-11-23T15:12:27.744Z,3.53
2022-11-23T15:14:57.289Z,1.13
2022-11-23T15:17:24.391Z,1.87
2022-11-23T15:20:04.694Z,3.03
2022-11-23T15:22:32.699Z,7.00
2022-11-23T15:25:10.567Z,2.57
2022-11-23T15:27:44.708Z,4.27
2022-11-23T15:30:27.201Z,2.33
2022-11-23T15:32:57.136Z,3.50
2022-11-23T15:35:30.331Z,4.83
2022-11-23T15:37:57.583Z,3.50
2022-11-23T15:40:29.994Z,3.67
2022-11-23T15:42:56.564Z,2.50
2022-11-23T15:45:41.420Z,4.03
2022-11-23T15:48:21.690Z,5.20
2022-11-23T15:50:55.954Z,3.77
2022-11-23T15:53:26.933Z,3.07
2022-11-23T15:55:57.230Z,2.93
2022-11-23T15:58:23.896Z,4.00
2022-11-23T16:01:07.203Z,2.07
2022-11-23T16:03:36.133Z,6.00
2022-11-23T16:06:11.339Z,2.83
2022-11-23T16:08:40.595Z,4.27
2022-11-23T16:11:22.256Z,2.87
2022-11-23T16:13:48.684Z,4.67
2022-11-23T16:16:22.590Z,3.43
2022-11-23T16:18:56.906Z,2.43
2022-11-23T16:21:25.443Z,2.80
2022-11-23T16:23:55.315Z,2.43
2022-11-23T16:26:30.673Z,1.90
2022-11-23T16:28:58.906Z,4.83
2022-11-23T16:31:35.556Z,3.83
2022-11-23T16:34:01.982Z,2.87
2022-11-23T16:36:28.933Z,3.13
2022-11-23T16:38:57.642Z,5.17
2022-11-23T16:41:27.144Z,4.13
2022-11-23T16:43:56.455Z,4.13
2022-11-23T16:46:22.951Z,3.90
2022-11-23T16:48:49.545Z,4.50
2022-11-23T16:51:15.988Z,7.60
2022-11-23T16:54:11.989Z,5.93
2022-11-23T16:56:31.295Z,7.53
2022-11-23T16:58:57.844Z,4.37
2022-11-23T17:01:26.577Z,5.93
2022-11-23T17:03:53.516Z,6.87
2022-11-23T17:06:23.438Z,7.63
2022-11-23T17:08:59.246Z,5.93
2022-11-23T17:11:27.904Z,7.83
2022-11-23T17:13:55.816Z,7.03
2022-11-23T17:16:24.480Z,7.30
2022-11-23T17:18:50.964Z,5.07
2022-11-23T17:21:17.369Z,6.63
2022-11-23T17:23:44.253Z,5.73
2022-11-23T17:26:28.841Z,6.07
2022-11-23T17:28:55.957Z,6.23
2022-11-23T17:31:22.499Z,2.80
2022-11-23T17:33:49.357Z,3.60
2022-11-23T17:36:15.938Z,5.63
2022-11-23T17:38:44.571Z,3.43
2022-11-23T17:41:11.028Z,14.13
2022-11-23T17:43:39.636Z,8.17
2022-11-23T17:46:12.503Z,5.93
2022-11-23T17:48:38.953Z,5.53
2022-11-23T17:51:05.553Z,2.80
2022-11-23T17:53:31.950Z,5.43
2022-11-23T17:55:58.421Z,3.03
2022-11-23T17:58:24.826Z,3.90
2022-11-23T18:00:51.255Z,5.23
2022-11-23T18:03:17.733Z,3.37
2022-11-23T18:05:44.140Z,3.93
2022-11-23T18:08:10.893Z,5.43
2022-11-23T18:10:37.331Z,4.53
2022-11-23T18:13:03.781Z,6.63
2022-11-23T18:15:30.451Z,8.30
2022-11-23T18:18:01.536Z,8.00
2022-11-23T18:20:30.759Z,5.77
2022-11-23T18:22:57.149Z,6.07
2022-11-23T18:25:23.548Z,7.17
2022-11-23T18:27:50.185Z,5.07
2022-11-23T18:30:17.397Z,5.47
2022-11-23T18:32:43.873Z,5.00
2022-11-23T18:35:10.257Z,4.03
2022-11-23T18:37:36.816Z,4.53
2022-11-23T18:40:03.563Z,8.73
2022-11-23T18:42:30.035Z,8.00
2022-11-23T18:44:56.685Z,8.57
2022-11-23T18:47:24.015Z,6.13
2022-11-23T18:49:50.858Z,5.43
2022-11-23T18:52:17.282Z,5.40
2022-11-23T18:54:43.852Z,5.07
2022-11-23T18:57:11.853Z,6.07
2022-11-23T19:02:24.809Z,9.87
2022-11-23T19:04:51.269Z,5.10
2022-11-23T19:07:22.072Z,10.43
2022-11-23T19:09:51.728Z,6.70
2022-11-23T19:12:18.254Z,7.53
2022-11-23T19:14:49.477Z,7.60
2022-11-23T19:17:16.535Z,7.37
2022-11-23T19:19:43.019Z,7.73
2022-11-23T19:22:09.450Z,7.97
2022-11-23T19:24:36.206Z,7.83
2022-11-23T19:27:02.649Z,6.57
2022-11-23T19:29:29.242Z,6.27
2022-11-23T19:31:56.057Z,6.83
2022-11-23T19:34:22.537Z,10.37
2022-11-23T19:36:49.042Z,7.17
2022-11-23T19:39:15.460Z,6.90
2022-11-23T19:41:41.920Z,9.60
2022-11-23T19:44:09.404Z,6.80
2022-11-23T19:46:35.873Z,8.47
2022-11-23T19:49:02.448Z,9.47
2022-11-23T19:51:28.968Z,6.33
2022-11-23T19:54:00.825Z,7.10
2022-11-23T19:56:30.863Z,10.20
2022-11-23T19:59:00.013Z,10.33
2022-11-23T20:01:28.734Z,8.77
2022-11-23T20:03:57.750Z,9.40
2022-11-23T20:06:27.183Z,7.27
2022-11-23T20:09:01.999Z,5.73
2022-11-23T20:11:30.827Z,4.63
2022-11-23T20:13:57.921Z,6.80
2022-11-23T20:16:25.915Z,6.27
2022-11-23T20:18:58.863Z,4.13
2022-11-23T20:21:26.855Z,7.67
2022-11-23T20:24:04.909Z,8.13
2022-11-23T20:26:32.992Z,5.67
2022-11-23T20:28:59.456Z,7.63
2022-11-23T20:31:28.519Z,9.07
2022-11-23T20:33:56.169Z,5.87
2022-11-23T20:36:26.736Z,5.10
2022-11-23T20:38:53.947Z,5.93
2022-11-23T20:41:24.619Z,5.87
2022-11-23T20:43:54.527Z,11.97
2022-11-23T20:46:38.611Z,6.23
2022-11-23T21:52:45.031Z,11.67
2022-11-23T21:55:11.465Z,10.37
2022-11-23T21:57:38.407Z,7.30
2022-11-23T22:00:05.190Z,14.23
2022-11-23T22:02:38.790Z,11.37
2022-11-23T22:05:05.329Z,14.77
2022-11-23T22:07:33.215Z,10.83
2022-11-23T22:09:59.689Z,10.77
2022-11-23T22:12:26.578Z,10.27
2022-11-23T22:14:53.706Z,9.47
2022-11-23T22:17:20.118Z,8.50
2022-11-23T22:19:46.517Z,11.97
2022-11-23T22:22:13.335Z,18.17
2022-11-23T22:24:40.033Z,11.83
2022-11-23T22:27:06.432Z,9.80
2022-11-23T22:29:32.900Z,12.30
2022-11-23T22:31:59.408Z,10.60
2022-11-23T22:34:26.659Z,16.20
2022-11-23T22:36:53.078Z,15.77
2022-11-23T22:39:19.534Z,10.20
2022-11-23T22:41:45.972Z,14.83
2022-11-23T22:44:12.454Z,10.20
2022-11-23T22:46:39.705Z,12.07
2022-11-23T22:49:06.585Z,10.33
2022-11-23T22:51:33.274Z,13.63
2022-11-23T22:54:01.261Z,15.87
2022-11-23T22:56:29.206Z,11.97
2022-11-23T22:58:55.963Z,17.57
2022-11-23T23:01:26.313Z,11.80
2022-11-23T23:03:55.571Z,15.07
2022-11-23T23:06:25.318Z,11.80
2022-11-23T23:08:59.881Z,11.73
2022-11-23T23:11:28.760Z,11.00
2022-11-23T23:13:56.038Z,11.13
2022-11-23T23:16:23.165Z,10.53
2022-11-23T23:18:49.998Z,12.33
2022-11-23T23:21:19.290Z,11.67
2022-11-23T23:23:47.943Z,13.87
2022-11-23T23:26:16.531Z,10.53
2022-11-23T23:28:43.664Z,15.90
2022-11-23T23:31:14.095Z,15.60
2022-11-23T23:33:40.851Z,15.23
2022-11-23T23:36:10.407Z,8.30
2022-11-23T23:38:37.536Z,11.07
2022-11-23T23:41:05.551Z,14.23
2022-11-23T23:43:32.452Z,11.87
2022-11-23T23:46:01.130Z,11.60
2022-11-23T23:48:33.617Z,18.13
2022-11-23T23:51:20.228Z,9.77
2022-11-23T23:53:47.102Z,13.47
2022-11-23T23:56:16.522Z,18.83
2022-11-23T23:58:43.337Z,10.97
